vivus.ge alexa rank chart, vivus.ge alexa rank daily changes

vivus.ge alexa rank chart, vivus.ge alexa rank daily changes

vivus.ge
Actual rank:
809 488

RANK HISTORY

Date Rank Diff
2018/11/12 809 488 +178 771
2018/11/11 630 717 -146 939
2018/11/10 777 656 -48 543
2018/11/09 826 199 +366 157
2018/11/08 460 042 +77 192
2018/11/07 382 850 -511 835
2018/11/06 894 685 +110 220
2018/11/05 784 465 +434 706
2018/11/04 349 759 -313 799
2018/11/03 663 558 +135 367
2018/11/02 528 191 -102 973
2018/11/01 631 164 -67 615
2018/10/31 698 779 -139 954
2018/10/30 838 733 +65 928
2018/10/29 772 805 +216 561
2018/10/28 556 244 -222 892
2018/10/27 779 136 +143 043
2018/10/26 636 093 +63 054
2018/10/25 573 039 +98 659
2018/10/24 474 380 -144 814
2018/10/23 619 194 +128 795
2018/10/22 490 399 -79 351
2018/10/21 569 750 +112 940
2018/10/20 456 810 -64 432
2018/10/19 521 242 -156 673
2018/10/18 677 915 +99 172
2018/10/17 578 743 -211 137
2018/10/15 789 880 -150 590
2018/10/14 940 470 +414 824
2018/10/13 525 646 -76 831
2018/10/12 602 477 +159 758
2018/10/11 442 719 -352 659
2018/10/10 795 378 +167 466
2018/10/09 627 912 +443 121
2018/10/08 184 791 -60 597
2018/10/07 245 388 -154 877
2018/10/06 400 265 +171 743
2018/10/05 228 522 -316 669
2018/10/04 545 191 +152 730
2018/10/03 392 461 -117 076
2018/10/02 509 537 +44 796
2018/10/01 464 741 -1 543
2018/09/30 466 284 +5 025
2018/09/29 461 259 -49 185
2018/09/28 510 444 +27 434
2018/09/27 483 010 +187 671
2018/09/26 295 339 -238 434
2018/09/25 533 773 +184 440
2018/09/24 349 333 -14 716
2018/09/23 364 049 -80 146
2018/09/22 444 195 +50 406
2018/09/21 393 789 -118 639
2018/09/20 512 428 +99 057
2018/09/19 413 371 +200 422
2018/09/18 212 949 -229 423
2018/09/17 442 372 +234 731
2018/09/16 207 641 -154 400
2018/09/15 362 041 -115 704
2018/09/14 477 745 +265 822
2018/09/13 211 923

WIDGET FOR YOUR SITE

DOMAINS WITH THE NEAREST RANK

Domain Rank
bigtitsporntrends.com 809 483
jdorama.com 809 484
detivgorode.ua 809 485
mobile-mega.ru 809 486
arab.org 809 487
vivus.ge 809 488
upkod.ru 809 489
hydroponics.in.ua 809 490
xn--80aahh2ah1cn0e.xn--p1ai 809 491
2supruga.ru 809 492
elma-bpm.ru 809 493

DOMAINS WITH THE NEAREST RANK BY TLD .ge

Domain Rank
expresssesxi.ge 808 050
nostal.ge 808 238
lari.ge 808 353
vivus.ge 809 488
trialeti.ge 809 958
esport.ge 810 559
leadersport.ge 813 601
myspace.ge 815 075
cyc.ge 817 589